Time;durP1;ratioP1;P1;durP2;ratioP2;P2;SDS_P1;SDS_P2;PMS_P1;PMS_P2;Temp;Humidity;BMP_temperature;BMP_pressure;BME280_temperature;BME280_humidity;BME280_pressure;Samples;Min_cycle;Max_cycle;Signal;HPM_P1;HPM_P2
2023/03/28 00:01:20;;;;;;;9.02;3.70;;;;;;;-0.23;100.00;102630.56;4930665;29;20129;-84
2023/03/28 00:03:45;;;;;;;11.25;4.35;;;;;;;-0.21;100.00;102625.41;4949368;29;20399;-84
2023/03/28 00:06:17;;;;;;;15.23;4.13;;;;;;;-0.22;100.00;102632.31;4945790;29;20028;-84
2023/03/28 00:08:46;;;;;;;6.47;1.52;;;;;;;-0.14;100.00;102635.75;4932339;29;20114;-84
2023/03/28 00:11:25;;;;;;;11.75;4.20;;;;;;;-0.25;100.00;102631.44;4946578;29;20040;-84
2023/03/28 00:14:02;;;;;;;14.38;4.60;;;;;;;-0.28;100.00;102634.91;4931847;29;20091;-84
2023/03/28 00:16:38;;;;;;;11.90;4.43;;;;;;;-0.27;100.00;102631.44;4932722;29;20046;-84
2023/03/28 00:19:10;;;;;;;10.57;3.95;;;;;;;-0.31;100.00;102627.13;4929596;29;20052;-84
2023/03/28 00:21:41;;;;;;;9.55;4.13;;;;;;;-0.33;100.00;102628.88;4929749;29;20397;-84
2023/03/28 00:24:15;;;;;;;10.63;4.07;;;;;;;-0.38;100.00;102628.00;4919734;29;20122;-84
2023/03/28 00:26:53;;;;;;;14.13;4.55;;;;;;;-0.39;100.00;102629.72;4929156;29;20071;-84
2023/03/28 00:29:28;;;;;;;11.68;4.28;;;;;;;-0.38;100.00;102618.53;4928994;29;20036;-84
2023/03/28 00:31:54;;;;;;;11.00;4.22;;;;;;;-0.36;100.00;102623.69;4917174;29;20036;-84
2023/03/28 00:34:23;;;;;;;13.60;4.72;;;;;;;-0.37;100.00;102622.84;4940276;29;20568;-84
2023/03/28 00:36:54;;;;;;;9.88;4.15;;;;;;;-0.40;100.00;102627.13;4911505;29;20036;-84
2023/03/28 00:39:20;;;;;;;10.45;4.28;;;;;;;-0.44;100.00;102627.97;4923917;29;20044;-85
2023/03/28 00:41:45;;;;;;;10.70;4.55;;;;;;;-0.48;100.00;102623.66;4926496;29;20512;-84
2023/03/28 00:44:48;;;;;;;9.85;3.88;;;;;;;-0.42;100.00;102623.66;4926522;29;20035;-84
2023/03/28 00:48:12;;;;;;;9.10;3.80;;;;;;;-0.40;100.00;102628.00;4924896;29;20128;-84
2023/03/28 00:50:47;;;;;;;11.27;3.90;;;;;;;-0.52;100.00;102624.53;4874892;29;20036;-84
2023/03/28 00:53:26;;;;;;;8.90;4.00;;;;;;;-0.53;100.00;102631.44;4905277;29;20044;-84
2023/03/28 00:56:13;;;;;;;13.27;4.10;;;;;;;-0.52;100.00;102637.47;4908983;29;20043;-84
2023/03/28 00:58:42;;;;;;;13.27;4.55;;;;;;;-0.56;100.00;102633.16;4929574;29;20044;-84
2023/03/28 01:01:11;;;;;;;11.52;4.32;;;;;;;-0.55;100.00;102638.31;4927263;29;20040;-84
2023/03/28 01:03:45;;;;;;;9.98;3.75;;;;;;;-0.59;100.00;102633.16;4926483;29;20027;-84
2023/03/28 01:06:20;;;;;;;13.43;4.47;;;;;;;-0.57;100.00;102634.00;4915529;29;20441;-84
2023/03/28 01:08:49;;;;;;;11.55;4.25;;;;;;;-0.60;100.00;102634.00;4910207;29;20032;-84
2023/03/28 01:11:19;;;;;;;14.60;4.80;;;;;;;-0.59;100.00;102627.97;4910186;29;20040;-84
2023/03/28 01:13:56;;;;;;;12.75;4.45;;;;;;;-0.64;100.00;102634.00;4927739;29;20035;-84
2023/03/28 01:16:40;;;;;;;12.60;4.75;;;;;;;-0.63;100.00;102629.72;4920637;29;20725;-84
2023/03/28 01:19:11;;;;;;;9.18;4.53;;;;;;;-0.68;100.00;102621.94;4922117;29;20062;-84
2023/03/28 01:22:08;;;;;;;10.18;4.25;;;;;;;-0.64;100.00;102618.50;4933542;29;20058;-84
2023/03/28 01:25:02;;;;;;;11.85;4.68;;;;;;;-0.65;100.00;102619.38;4915982;29;20142;-84
2023/03/28 01:27:44;;;;;;;13.63;4.57;;;;;;;-0.65;100.00;102627.13;4940598;29;20543;-84
2023/03/28 01:30:28;;;;;;;;;;;;;;;-0.58;100.00;102621.94;4955077;29;20042;-84
2023/03/28 01:33:11;;;;;;;10.00;4.38;;;;;;;-0.69;100.00;102609.88;4940945;29;19915;-84
2023/03/28 01:36:16;;;;;;;14.77;4.43;;;;;;;-0.67;100.00;102613.34;4947015;29;20032;-84
2023/03/28 01:39:14;;;;;;;12.30;4.45;;;;;;;-0.70;100.00;102608.16;4943385;29;20172;-84
2023/03/28 01:42:25;;;;;;;5.20;1.80;;;;;;;-0.61;100.00;102611.63;4962847;28;20042;-84
2023/03/28 01:45:47;;;;;;;9.98;4.55;;;;;;;-0.71;100.00;102603.00;4941515;29;20039;-84
2023/03/28 01:48:36;;;;;;;11.70;4.85;;;;;;;-0.70;100.00;102600.41;4942163;29;20036;-83
2023/03/28 01:51:23;;;;;;;6.25;2.70;;;;;;;-0.64;100.00;102604.72;4933973;29;20044;-84
2023/03/28 01:54:04;;;;;;;9.68;4.38;;;;;;;-0.74;100.00;102610.75;4933963;29;20042;-84
2023/03/28 01:56:59;;;;;;;13.68;4.68;;;;;;;-0.77;100.00;102603.84;4930712;29;20450;-84
2023/03/28 01:59:40;;;;;;;13.63;4.50;;;;;;;-0.83;100.00;102609.00;4914510;29;20138;-83
2023/03/28 02:02:14;;;;;;;10.20;4.35;;;;;;;-0.83;100.00;102609.00;4934470;29;20537;-84
2023/03/28 02:04:47;;;;;;;14.13;4.43;;;;;;;-0.80;100.00;102605.53;4952011;29;20094;-84
2023/03/28 02:07:23;;;;;;;13.77;4.80;;;;;;;-0.81;100.00;102609.84;4947379;29;20039;-84
2023/03/28 02:09:54;;;;;;;13.20;4.95;;;;;;;-0.85;100.00;102602.09;4957533;28;20122;-84
2023/03/28 02:12:40;;;;;;;13.95;4.90;;;;;;;-0.82;100.00;102613.28;4950909;29;20035;-84
2023/03/28 02:15:22;;;;;;;15.57;4.65;;;;;;;-0.84;100.00;102609.00;4894793;29;20060;-84
2023/03/28 02:18:02;;;;;;;14.27;4.93;;;;;;;-0.85;100.00;102605.53;4907145;29;20074;-84
2023/03/28 02:20:33;;;;;;;16.35;4.90;;;;;;;-0.83;100.00;102603.81;4911037;29;20807;-84
2023/03/28 02:23:07;;;;;;;14.88;5.47;;;;;;;-0.89;100.00;102606.41;4912568;29;20325;-84
2023/03/28 02:25:38;;;;;;;15.43;5.15;;;;;;;-0.86;100.00;102598.66;4894722;29;20302;-84
2023/03/28 02:28:18;;;;;;;15.30;5.63;;;;;;;-0.85;100.00;102600.38;4908845;29;20052;-84
2023/03/28 02:30:54;;;;;;;12.75;5.50;;;;;;;-0.86;100.00;102596.06;4896532;29;20036;-84
2023/03/28 02:33:37;;;;;;;12.98;5.55;;;;;;;-0.86;100.00;102597.78;4900316;29;20040;-84
2023/03/28 02:36:33;;;;;;;14.20;5.78;;;;;;;-0.83;100.00;102595.22;4893950;29;20509;-84
2023/03/28 02:39:07;;;;;;;11.75;5.55;;;;;;;-0.90;100.00;102593.47;4912809;29;20514;-84
2023/03/28 02:42:02;;;;;;;14.77;5.40;;;;;;;-0.90;100.00;102593.47;4926713;29;20043;-84
2023/03/28 02:44:49;;;;;;;9.90;2.50;;;;;;;-0.82;100.00;102595.22;4934212;29;20118;-85
2023/03/28 02:47:32;;;;;;;16.75;5.82;;;;;;;-0.91;100.00;102587.44;4931525;29;20146;-84
2023/03/28 02:50:16;;;;;;;13.82;5.50;;;;;;;-0.84;100.00;102594.34;4923982;29;20043;-84
2023/03/28 02:53:11;;;;;;;14.77;5.50;;;;;;;-0.91;100.00;102591.75;4933966;29;20050;-84
2023/03/28 02:56:22;;;;;;;14.25;5.90;;;;;;;-0.87;100.00;102596.06;4891962;29;20489;-84
2023/03/28 03:02:15;;;;;;;14.55;5.78;;;;;;;-0.95;100.00;102593.47;4933032;29;20114;-84
2023/03/28 03:04:40;;;;;;;12.63;5.75;;;;;;;-0.96;100.00;102584.00;4934858;29;20466;-84
2023/03/28 03:07:57;;;;;;;;;;;;;;;;;;;;;
2023/03/28 03:10:26;;;;;;;13.20;6.03;;;;;;;-1.02;100.00;102591.75;4911040;29;20050;-86
2023/03/28 03:13:00;;;;;;;11.90;6.10;;;;;;;-0.97;100.00;102592.63;4925615;29;20436;-84
2023/03/28 03:15:29;;;;;;;16.95;7.20;;;;;;;-1.00;100.00;102592.63;4897410;29;20481;-84
2023/03/28 03:18:04;;;;;;;15.00;6.93;;;;;;;-0.98;100.00;102590.88;4891582;29;20517;-84
2023/03/28 03:20:44;;;;;;;15.27;6.75;;;;;;;-0.99;100.00;102594.34;4895047;29;20107;-84
2023/03/28 03:23:22;;;;;;;20.17;7.50;;;;;;;-1.01;100.00;102586.59;4915271;29;20083;-86
2023/03/28 03:26:04;;;;;;;15.80;6.68;;;;;;;-1.01;100.00;102594.34;4931255;29;20074;-86
2023/03/28 03:31:51;;;;;;;14.65;7.40;;;;;;;-1.02;100.00;102591.75;4926071;29;20138;-86
2023/03/28 03:34:27;;;;;;;15.32;7.80;;;;;;;-1.08;100.00;102589.16;4931067;29;20080;-86
2023/03/28 03:36:59;;;;;;;6.90;3.53;;;;;;;-0.98;100.00;102593.47;4931637;29;20591;-86
2023/03/28 03:39:24;;;;;;;9.15;2.83;;;;;;;-0.98;100.00;102594.34;4929424;29;20036;-86
2023/03/28 03:42:40;;;;;;;15.77;7.35;;;;;;;-1.00;100.00;102598.63;4930339;29;20046;-86
2023/03/28 03:45:15;;;;;;;17.95;8.50;;;;;;;-1.05;100.00;102594.31;4860453;29;20049;-83
2023/03/28 03:47:52;;;;;;;18.95;7.90;;;;;;;-1.09;100.00;102597.75;4852519;29;20041;-83
2023/03/28 03:54:02;;;;;;;17.65;8.30;;;;;;;-1.13;100.00;102590.88;4852582;29;20470;-83
2023/03/28 03:56:36;;;;;;;19.67;8.65;;;;;;;-1.12;100.00;102592.59;4853330;29;20041;-83
2023/03/28 03:59:05;;;;;;;21.80;8.98;;;;;;;-1.14;100.00;102589.16;4870884;29;20060;-83
2023/03/28 04:02:02;;;;;;;15.60;8.23;;;;;;;-1.13;100.00;102586.56;4860588;29;20051;-86
2023/03/28 04:05:02;;;;;;;16.15;8.70;;;;;;;-1.08;100.00;102591.75;4880497;29;20055;-85
2023/03/28 04:07:27;;;;;;;20.90;8.45;;;;;;;-1.15;100.00;102582.25;4900131;29;20036;-84
2023/03/28 04:13:14;;;;;;;15.02;8.23;;;;;;;-1.14;100.00;102583.97;4925941;29;20047;-83
2023/03/28 04:15:54;;;;;;;18.42;9.00;;;;;;;-1.14;100.00;102591.72;4926157;29;20040;-86
2023/03/28 04:18:19;;;;;;;14.60;8.93;;;;;;;-1.12;100.00;102587.44;4894362;29;20179;-83
2023/03/28 04:24:14;;;;;;;29.17;9.52;;;;;;;-1.23;100.00;102589.97;4930262;29;20046;-84
2023/03/28 04:27:16;;;;;;;15.60;8.90;;;;;;;-1.19;100.00;102585.69;4931871;29;20115;-84
2023/03/28 04:29:56;;;;;;;19.30;9.50;;;;;;;-1.19;100.00;102580.53;4863786;29;20048;-84
2023/03/28 04:32:28;;;;;;;8.40;4.25;;;;;;;-1.11;100.00;102581.41;4920261;29;20099;-86
2023/03/28 04:34:56;;;;;;;15.27;8.77;;;;;;;-1.24;100.00;102582.22;4923908;29;20031;-84
2023/03/28 04:37:26;;;;;;;17.38;9.70;;;;;;;-1.24;100.00;102580.50;4931454;29;20110;-84
2023/03/28 04:39:52;;;;;;;21.58;10.00;;;;;;;-1.30;100.00;102583.91;4931516;29;20044;-84
2023/03/28 04:42:22;;;;;;;17.60;9.57;;;;;;;-1.23;100.00;102576.19;4928274;29;20039;-84
2023/03/28 04:44:52;;;;;;;17.58;10.48;;;;;;;-1.29;100.00;102577.03;4930528;29;20036;-84
2023/03/28 04:47:21;;;;;;;14.27;4.88;;;;;;;-1.20;100.00;102578.78;4931650;29;20477;-84
2023/03/28 04:49:51;;;;;;;20.05;10.77;;;;;;;-1.33;100.00;102578.75;4899606;29;20037;-85
2023/03/28 04:52:19;;;;;;;19.70;10.95;;;;;;;-1.35;100.00;102575.31;4924643;29;20043;-85
2023/03/28 04:54:48;;;;;;;10.50;4.45;;;;;;;-1.26;100.00;102577.03;4930197;29;20501;-85
2023/03/28 04:57:13;;;;;;;11.75;5.10;;;;;;;-1.23;100.00;102583.94;4933492;29;20039;-85
2023/03/28 05:02:27;;;;;;;16.13;11.45;;;;;;;-1.39;100.00;102598.53;4869116;29;20050;-85
2023/03/28 05:04:55;;;;;;;19.92;11.98;;;;;;;-1.38;100.00;102601.09;4891677;29;20077;-85
2023/03/28 05:07:20;;;;;;;19.73;12.73;;;;;;;-1.37;100.00;102596.81;4912995;29;20032;-85
2023/03/28 05:09:49;;;;;;;18.75;12.38;;;;;;;-1.38;100.00;102595.94;4916231;29;20040;-85
2023/03/28 05:12:24;;;;;;;17.95;12.77;;;;;;;-1.47;100.00;102595.06;4914370;29;20043;-85
2023/03/28 05:14:53;;;;;;;23.23;13.35;;;;;;;-1.40;100.00;102600.25;4916470;29;20040;-85
2023/03/28 05:17:24;;;;;;;17.95;13.30;;;;;;;-1.39;100.00;102599.38;4915255;29;20052;-85
2023/03/28 05:19:49;;;;;;;22.60;14.17;;;;;;;-1.34;100.00;102597.69;4918153;29;20122;-85
2023/03/28 05:22:24;;;;;;;11.73;6.65;;;;;;;-1.27;100.00;102604.59;4933446;29;20128;-85
2023/03/28 05:24:53;;;;;;;25.45;14.32;;;;;;;-1.33;100.00;102596.81;4923659;29;20047;-85
2023/03/28 05:27:21;;;;;;;13.32;6.35;;;;;;;-1.27;100.00;102599.41;4906895;29;20039;-85
2023/03/28 05:29:55;;;;;;;25.02;13.80;;;;;;;-1.43;100.00;102607.97;4935179;29;20035;-85
2023/03/28 05:32:21;;;;;;;25.05;14.85;;;;;;;-1.36;100.00;102609.72;4931872;29;20500;-85
2023/03/28 05:34:53;;;;;;;22.75;15.52;;;;;;;-1.41;100.00;102607.97;4934790;29;20042;-85
2023/03/28 05:37:22;;;;;;;20.60;14.35;;;;;;;-1.35;100.00;102614.03;4933269;29;20040;-85
2023/03/28 05:39:53;;;;;;;16.35;7.05;;;;;;;-1.29;100.00;102614.03;4930319;29;20067;-85
2023/03/28 05:42:28;;;;;;;11.43;6.25;;;;;;;-1.26;100.00;102608.03;4921651;29;20038;-85
2023/03/28 05:44:57;;;;;;;23.95;14.73;;;;;;;-1.41;100.00;102616.59;4930803;29;20054;-85
2023/03/28 05:47:28;;;;;;;25.85;15.57;;;;;;;-1.34;100.00;102614.88;4942286;29;20035;-85
2023/03/28 05:50:00;;;;;;;24.53;14.87;;;;;;;-1.34;100.00;102620.06;4948290;29;20522;-85
2023/03/28 05:52:29;;;;;;;23.80;15.60;;;;;;;-1.24;100.00;102623.53;4916208;29;20099;-85
2023/03/28 05:54:55;;;;;;;26.52;15.77;;;;;;;-1.28;100.00;102612.31;4931026;29;20649;-85
2023/03/28 05:57:32;;;;;;;27.77;16.23;;;;;;;-1.22;100.00;102616.66;4914008;29;20040;-85
2023/03/28 05:59:58;;;;;;;12.88;7.80;;;;;;;-1.14;100.00;102604.63;4929471;29;20067;-85
2023/03/28 06:02:28;;;;;;;25.90;15.82;;;;;;;-1.18;100.00;102602.91;4915833;29;20126;-84
2023/03/28 06:04:59;;;;;;;17.02;8.18;;;;;;;-1.07;100.00;102603.78;4931862;29;20063;-84
2023/03/28 06:07:28;;;;;;;13.85;7.28;;;;;;;-1.00;100.00;102602.94;4914970;29;20027;-85
2023/03/28 06:10:00;;;;;;;25.60;15.80;;;;;;;-0.98;100.00;102598.63;4931715;29;20161;-84
2023/03/28 06:12:29;;;;;;;21.55;15.70;;;;;;;-0.93;100.00;102599.50;4914761;29;20031;-84
2023/03/28 06:14:55;;;;;;;28.33;15.82;;;;;;;-0.85;100.00;102597.78;4915634;29;20039;-84
2023/03/28 06:17:24;;;;;;;24.00;15.75;;;;;;;-0.84;100.00;102599.50;4914903;29;20031;-84
2023/03/28 06:19:55;;;;;;;28.80;16.02;;;;;;;-0.84;100.00;102599.50;4929029;29;20082;-84
2023/03/28 06:22:26;;;;;;;13.40;7.10;;;;;;;-0.71;100.00;102600.41;4946077;28;20054;-84
2023/03/28 06:24:59;;;;;;;16.52;7.25;;;;;;;-0.64;100.00;102603.00;4931282;29;20102;-84
2023/03/28 06:27:24;;;;;;;28.80;15.60;;;;;;;-0.59;100.00;102600.41;4941892;29;20079;-84
2023/03/28 06:30:03;;;;;;;24.75;15.50;;;;;;;-0.54;100.00;102613.34;4929734;29;20441;-83
2023/03/28 06:32:34;;;;;;;22.08;15.07;;;;;;;-0.46;100.00;102609.88;4929028;29;20429;-82
2023/03/28 06:35:03;;;;;;;25.95;15.13;;;;;;;-0.40;100.00;102616.78;4921584;29;20063;-84
2023/03/28 06:37:28;;;;;;;28.42;15.18;;;;;;;-0.36;100.00;102618.53;4940040;29;20087;-84
2023/03/28 06:39:57;;;;;;;23.17;14.77;;;;;;;-0.32;100.00;102615.06;4930571;29;20408;-84
2023/03/28 06:42:23;;;;;;;27.73;15.40;;;;;;;-0.31;100.00;102606.44;4931011;29;20071;-84
2023/03/28 06:44:51;;;;;;;24.88;15.43;;;;;;;-0.26;100.00;102617.66;4933217;29;20102;-84
2023/03/28 06:47:17;;;;;;;26.70;14.93;;;;;;;-0.16;100.00;102614.19;4929450;29;20401;-84
2023/03/28 06:49:45;;;;;;;23.08;14.23;;;;;;;-0.13;100.00;102623.66;4931291;29;20059;-84
2023/03/28 06:52:10;;;;;;;21.42;14.60;;;;;;;-0.07;100.00;102616.75;4925447;29;20083;-84
2023/03/28 06:54:37;;;;;;;13.88;7.13;;;;;;;0.05;100.00;102615.03;4926003;29;20450;-82
2023/03/28 06:57:03;;;;;;;23.85;14.48;;;;;;;0.07;100.00;102618.47;4931960;29;20239;-85
2023/03/28 06:59:32;;;;;;;21.02;14.32;;;;;;;0.13;100.00;102613.28;4926921;29;20040;-84
2023/03/28 07:02:14;;;;;;;24.05;14.93;;;;;;;0.21;100.00;102621.88;4932619;29;20091;-84
2023/03/28 07:04:48;;;;;;;22.55;14.55;;;;;;;0.31;100.00;102618.41;4948140;29;20036;-84
2023/03/28 07:07:14;;;;;;;26.02;14.23;;;;;;;0.40;100.00;102618.41;4930867;29;20035;-85
2023/03/28 07:09:50;;;;;;;20.75;14.02;;;;;;;0.50;100.00;102621.81;4932009;29;20040;-85
2023/03/28 07:12:17;;;;;;;21.83;13.20;;;;;;;0.59;100.00;102625.22;4920128;29;20043;-86
2023/03/28 07:17:32;;;;;;;26.50;14.35;;;;;;;0.98;100.00;102625.88;4916964;29;20758;-86
2023/03/28 07:20:01;;;;;;;20.20;13.20;;;;;;;1.13;100.00;102633.56;4940735;29;20529;-85
2023/03/28 07:22:49;;;;;;;22.08;12.88;;;;;;;1.33;100.00;102632.59;4918541;29;20036;-85
2023/03/28 07:25:17;;;;;;;20.48;12.13;;;;;;;1.49;100.00;102631.59;4917965;29;20035;-87
2023/03/28 07:27:52;;;;;;;24.52;12.55;;;;;;;1.64;100.00;102631.50;4939862;29;20091;-87
2023/03/28 07:30:20;;;;;;;19.05;10.77;;;;;;;1.81;100.00;102634.78;4932644;29;20044;-87
2023/03/28 07:32:55;;;;;;;17.08;10.88;;;;;;;2.07;100.00;102631.97;4915225;29;20564;-87
2023/03/28 07:35:20;;;;;;;18.45;10.75;;;;;;;2.33;100.00;102629.06;4929612;29;20064;-87
2023/03/28 07:37:52;;;;;;;15.68;10.07;;;;;;;2.63;98.95;102632.19;4923477;29;20123;-87
2023/03/28 07:40:17;;;;;;;18.52;9.77;;;;;;;2.85;98.12;102631.06;4932133;29;20035;-87
2023/03/28 07:42:42;;;;;;;20.80;9.90;;;;;;;3.01;95.98;102636.91;4930968;29;20032;-87
2023/03/28 07:45:17;;;;;;;20.58;9.50;;;;;;;3.18;95.92;102636.66;4923478;29;20492;-87
2023/03/28 07:47:45;;;;;;;19.88;9.85;;;;;;;3.25;94.21;102630.50;4940190;28;20032;-86
2023/03/28 07:50:18;;;;;;;19.17;9.05;;;;;;;3.42;94.25;102636.28;4933193;29;20094;-87
2023/03/28 07:52:56;;;;;;;23.00;9.15;;;;;;;3.50;92.76;102628.38;4928012;29;20095;-87
2023/03/28 07:55:21;;;;;;;14.73;8.85;;;;;;;3.68;92.27;102628.94;4945657;29;20044;-87
2023/03/28 07:57:47;;;;;;;17.13;8.57;;;;;;;3.79;91.70;102626.16;4932200;29;20051;-87
2023/03/28 08:00:14;;;;;;;15.57;8.27;;;;;;;3.92;91.29;102625.03;4930066;29;20047;-87
2023/03/28 08:02:43;;;;;;;12.35;8.00;;;;;;;4.00;88.96;102624.91;4931469;29;20110;-87
2023/03/28 08:05:25;;;;;;;14.13;7.30;;;;;;;4.16;87.98;102641.13;4901844;29;20072;-87
2023/03/28 08:07:51;;;;;;;16.10;7.40;;;;;;;4.22;87.40;102641.00;4928482;29;20118;-87
2023/03/28 08:10:22;;;;;;;14.98;7.63;;;;;;;4.39;87.22;102639.78;4939874;29;20745;-87
2023/03/28 08:12:48;;;;;;;14.25;6.82;;;;;;;4.52;85.68;102629.16;4931362;29;20036;-88
2023/03/28 08:15:13;;;;;;;16.63;7.78;;;;;;;4.59;85.74;102634.19;4931893;29;20539;-87
2023/03/28 08:17:38;;;;;;;13.40;6.13;;;;;;;4.66;83.93;102633.19;4932512;29;20032;-87
2023/03/28 08:20:09;;;;;;;12.60;6.13;;;;;;;4.78;84.72;102636.41;4931017;29;20048;-87
2023/03/28 08:22:34;;;;;;;15.65;7.18;;;;;;;4.80;84.22;102645.91;4931738;29;20058;-87
2023/03/28 08:25:06;;;;;;;16.30;6.75;;;;;;;4.97;83.86;102638.59;4932271;29;20063;-87
2023/03/28 08:27:34;;;;;;;11.80;6.15;;;;;;;5.22;83.63;102632.84;4931120;29;20024;-87
2023/03/28 08:30:00;;;;;;;13.30;5.00;;;;;;;5.29;80.29;102634.41;4930309;29;20036;-87
2023/03/28 08:32:29;;;;;;;13.52;5.10;;;;;;;5.34;78.65;102628.19;4941229;29;20032;-87
2023/03/28 08:37:56;;;;;;;14.60;5.18;;;;;;;5.58;79.07;102616.28;4925945;29;20147;-86
2023/03/28 08:40:30;;;;;;;15.23;4.95;;;;;;;5.51;77.20;102627.78;4943124;29;20107;-86
2023/03/28 08:43:35;;;;;;;12.32;5.00;;;;;;;5.61;78.42;102624.06;4939817;29;20095;-86
2023/03/28 08:46:01;;;;;;;15.57;4.85;;;;;;;5.63;76.99;102614.44;4931877;29;20027;-87
2023/03/28 08:48:47;;;;;;;10.88;4.57;;;;;;;5.72;77.37;102620.34;4931254;29;20043;-86
2023/03/28 08:51:34;;;;;;;11.15;4.03;;;;;;;5.75;76.45;102618.50;4945317;29;20038;-86
2023/03/28 08:54:00;;;;;;;9.10;4.30;;;;;;;5.83;76.08;102620.91;4920805;29;20044;-87
2023/03/28 08:56:34;;;;;;;14.82;4.40;;;;;;;5.81;76.24;102620.09;4941374;29;20083;-88
2023/03/28 08:59:32;;;;;;;11.43;4.10;;;;;;;5.82;74.77;102614.81;4927387;29;20044;-87
2023/03/28 09:01:57;;;;;;;10.18;4.07;;;;;;;5.84;74.15;102613.03;4927726;29;20042;-87
2023/03/28 09:04:39;;;;;;;16.60;4.63;;;;;;;5.94;74.70;102613.69;4926847;29;20035;-86
2023/03/28 09:07:25;;;;;;;12.50;4.45;;;;;;;5.91;74.64;102603.31;4926006;29;20081;-87
2023/03/28 09:10:31;;;;;;;15.23;4.63;;;;;;;6.01;75.14;102602.19;4912695;29;20046;-86
2023/03/28 09:13:06;;;;;;;14.55;4.53;;;;;;;6.08;73.00;102605.50;4838058;29;20037;-87
2023/03/28 09:15:40;;;;;;;13.23;4.05;;;;;;;6.16;73.22;102608.75;4853147;29;20045;-86
2023/03/28 09:18:15;;;;;;;16.23;4.78;;;;;;;6.19;72.65;102609.53;4857263;29;20689;-86
2023/03/28 09:21:40;;;;;;;14.60;4.45;;;;;;;6.30;72.98;102606.59;4854235;29;20058;-86
2023/03/28 09:24:52;;;;;;;15.25;4.43;;;;;;;6.26;72.04;102600.59;4845282;29;20081;-86
2023/03/28 09:27:51;;;;;;;11.13;3.30;;;;;;;6.19;70.12;102599.06;4838207;29;20128;-86
2023/03/28 09:30:23;;;;;;;8.45;3.20;;;;;;;6.26;69.86;102595.38;4903201;29;20047;-86
2023/03/28 09:33:17;;;;;;;11.85;2.83;;;;;;;6.46;70.38;102586.13;4903511;29;20082;-86
2023/03/28 09:35:49;;;;;;;9.77;2.92;;;;;;;6.45;67.43;102592.25;4896387;29;20032;-86
2023/03/28 09:38:40;;;;;;;10.13;3.10;;;;;;;6.52;69.14;102596.41;4907813;29;20072;-86
2023/03/28 09:41:41;;;;;;;9.80;3.10;;;;;;;6.71;68.76;102592.34;4911954;29;20508;-86
2023/03/28 09:44:25;;;;;;;12.07;2.88;;;;;;;6.74;65.38;102594.00;4921360;29;20444;-87
2023/03/28 09:47:05;;;;;;;8.68;2.80;;;;;;;6.81;65.47;102587.72;4919783;29;20036;-86
2023/03/28 09:49:36;;;;;;;10.60;3.72;;;;;;;6.85;65.14;102579.72;4928361;29;20047;-86
2023/03/28 09:52:13;;;;;;;11.13;3.83;;;;;;;7.01;65.64;102584.47;4927935;29;20058;-87
2023/03/28 09:54:51;;;;;;;11.07;3.90;;;;;;;7.17;65.45;102575.22;4932193;29;20060;-87
2023/03/28 09:57:45;;;;;;;9.45;3.20;;;;;;;7.37;66.29;102562.34;4932048;29;20760;-86
2023/03/28 10:00:22;;;;;;;8.70;3.10;;;;;;;7.78;62.51;102560.94;4894337;29;20095;-88
2023/03/28 10:02:54;;;;;;;7.28;2.78;;;;;;;7.83;60.06;102555.53;4919025;29;20036;-88
2023/03/28 10:05:42;;;;;;;7.28;2.85;;;;;;;8.03;61.72;102544.38;4903664;29;20050;-86
2023/03/28 10:08:28;;;;;;;9.98;2.70;;;;;;;8.23;58.68;102538.38;4927608;29;20031;-86
2023/03/28 10:11:03;;;;;;;9.98;2.63;;;;;;;8.34;56.81;102538.88;4907083;29;20127;-86
2023/03/28 10:13:55;;;;;;;5.78;2.05;;;;;;;8.61;58.41;102529.97;4899592;29;20116;-88
2023/03/28 10:16:26;;;;;;;11.40;2.67;;;;;;;8.67;55.74;102529.72;4892499;29;20048;-86
2023/03/28 10:19:00;;;;;;;8.82;2.45;;;;;;;9.07;54.83;102528.97;4868843;29;20646;-88
2023/03/28 10:21:48;;;;;;;7.68;2.40;;;;;;;9.34;54.39;102516.50;4875918;29;20429;-86
2023/03/28 10:24:22;;;;;;;9.93;2.42;;;;;;;9.46;53.39;102517.75;4892571;29;20044;-88
2023/03/28 10:26:50;;;;;;;12.43;3.15;;;;;;;9.95;52.75;102511.19;4891336;29;20068;-86
2023/03/28 10:29:20;;;;;;;9.05;2.28;;;;;;;10.17;50.77;102505.84;4893373;29;20075;-88
2023/03/28 10:31:52;;;;;;;7.68;2.10;;;;;;;9.95;49.86;102508.56;4883142;29;20047;-86
2023/03/28 10:34:34;;;;;;;6.93;2.40;;;;;;;10.22;51.33;102500.41;4875851;29;20112;-88
2023/03/28 10:37:02;;;;;;;7.10;1.85;;;;;;;10.13;46.98;102496.38;4891891;29;20104;-88
2023/03/28 10:39:32;;;;;;;7.60;2.13;;;;;;;9.83;47.91;102488.09;4893977;29;20040;-88
2023/03/28 10:42:04;;;;;;;5.55;1.75;;;;;;;9.91;47.55;102493.84;4890464;29;20040;-88
2023/03/28 10:44:36;;;;;;;5.68;2.10;;;;;;;10.13;47.37;102492.91;4872682;29;20460;-88
2023/03/28 10:47:05;;;;;;;9.52;2.42;;;;;;;10.10;47.36;102479.91;4882560;29;20543;-87
2023/03/28 10:50:00;;;;;;;8.30;2.40;;;;;;;9.96;50.93;102478.72;4917442;29;20521;-86
2023/03/28 10:52:52;;;;;;;7.90;2.47;;;;;;;9.65;51.61;102492.41;4832777;29;20476;-86
2023/03/28 10:55:49;;;;;;;11.60;3.28;;;;;;;9.34;49.62;102486.75;4831275;29;20491;-88
2023/03/28 10:58:41;;;;;;;7.35;2.35;;;;;;;9.21;48.30;102488.19;4835832;29;20057;-85
2023/03/28 11:01:26;;;;;;;7.85;2.55;;;;;;;8.97;50.32;102488.28;4826694;29;20076;-86
2023/03/28 11:04:21;;;;;;;6.50;2.55;;;;;;;9.04;51.59;102471.34;4815419;29;20041;-87
2023/03/28 11:07:19;;;;;;;6.70;2.72;;;;;;;9.01;51.10;102460.97;4837517;29;20041;-87
2023/03/28 11:10:05;;;;;;;6.70;2.72;;;;;;;8.89;51.03;102451.00;4836223;29;20538;-87
2023/03/28 11:13:06;;;;;;;8.13;3.03;;;;;;;9.22;51.08;102448.72;4837911;29;20634;-88
2023/03/28 11:15:37;;;;;;;5.93;2.70;;;;;;;9.32;51.19;102439.53;4793431;29;20073;-87
2023/03/28 11:18:22;;;;;;;11.30;3.58;;;;;;;9.17;51.61;102429.66;4838587;29;20065;-85
2023/03/28 11:21:30;;;;;;;10.93;3.15;;;;;;;9.16;49.91;102427.97;4849337;29;20060;-87
2023/03/28 11:24:31;;;;;;;10.30;2.85;;;;;;;9.62;51.21;102425.97;4834757;29;20049;-87
2023/03/28 11:27:21;;;;;;;23.17;3.33;;;;;;;9.85;49.75;102420.53;4860638;29;20045;-87
2023/03/28 11:30:15;;;;;;;9.75;2.50;;;;;;;10.00;49.55;102416.31;4909739;29;20042;-87
2023/03/28 11:32:48;;;;;;;7.70;2.90;;;;;;;10.02;47.62;102412.72;4933237;29;20040;-87
2023/03/28 11:35:49;;;;;;;8.00;2.78;;;;;;;10.21;50.37;102419.78;4941132;29;20071;-87
2023/03/28 11:38:56;;;;;;;7.20;2.75;;;;;;;10.39;48.95;102413.63;4886842;29;20048;-86
2023/03/28 11:41:31;;;;;;;7.57;2.97;;;;;;;10.15;46.23;102405.09;4931200;29;20441;-87
2023/03/28 11:44:23;;;;;;;6.93;2.80;;;;;;;10.39;46.60;102397.84;4925094;29;20496;-87
2023/03/28 11:47:20;;;;;;;6.80;2.70;;;;;;;10.49;46.85;102388.59;4911327;29;20046;-87
2023/03/28 11:50:10;;;;;;;8.35;2.58;;;;;;;10.66;47.47;102372.81;4951385;28;20040;-86
2023/03/28 11:52:44;;;;;;;6.07;2.10;;;;;;;10.72;45.42;102358.50;4900276;29;20386;-87
2023/03/28 11:55:34;;;;;;;9.15;2.35;;;;;;;10.79;47.08;102357.25;4926701;29;20043;-86
2023/03/28 11:58:34;;;;;;;7.70;2.75;;;;;;;10.76;45.02;102354.75;4908890;29;20044;-86
2023/03/28 12:01:11;;;;;;;8.32;2.60;;;;;;;10.51;43.07;102346.41;4915512;29;20044;-87
2023/03/28 12:04:03;;;;;;;8.68;2.70;;;;;;;10.49;44.96;102345.63;4949028;28;20039;-86
2023/03/28 12:07:15;;;;;;;5.65;2.15;;;;;;;10.54;47.14;102348.91;4917655;29;20035;-87
2023/03/28 12:10:00;;;;;;;9.18;2.80;;;;;;;10.36;45.12;102340.09;4867854;29;20074;-87
2023/03/28 12:12:34;;;;;;;8.55;2.25;;;;;;;10.36;44.45;102324.31;4861838;29;20517;-87
2023/03/28 12:15:17;;;;;;;6.40;2.33;;;;;;;10.40;45.00;102325.88;4889808;29;20413;-88
2023/03/28 12:18:06;;;;;;;6.05;2.55;;;;;;;10.42;45.35;102318.78;4930670;29;20115;-87
2023/03/28 12:20:38;;;;;;;8.15;2.20;;;;;;;10.27;44.79;102319.53;4936304;28;20059;-86
2023/03/28 12:23:36;;;;;;;6.72;2.42;;;;;;;10.28;45.92;102316.81;4909441;29;20068;-86
2023/03/28 12:26:46;;;;;;;4.38;2.17;;;;;;;10.27;45.29;102309.84;4915803;29;20503;-86
2023/03/28 12:29:45;;;;;;;6.18;2.42;;;;;;;10.28;44.00;102305.44;4951440;29;20039;-86
2023/03/28 12:32:41;;;;;;;6.10;2.38;;;;;;;10.22;44.24;102305.75;4936182;28;20036;-86